CheckWX is a tool to help pilots better visualize weather data.  It is not intended as a substitute for an official pre-flight weather briefing.

08:13:00 UTC

KBTL METAR
W K Kellogg Airport
Battle Creek, Michigan, USA
Current

20 mins ago

KBTL 220753Z AUTO 00000KT 10SM CLR M06/M08 A3036 RMK AO2 SLP293 T10561078
Observed
Feb-22 @ 07:53 UTC
Visibility
10 SM
Flight Rules
VFR
Cloud Levels
  • Clear skies
Temperature
-6°C / 21°F
Dewpoint
-8°C / 18°F
Humidity
86%
Altimeter
30.36" Hg
Pressure
1029.3 hPa
Previous

1 hour ago

KBTL 220653Z AUTO 00000KT 10SM CLR M04/M07 A3032 RMK AO2 SLP281 T10441067
Observed
Feb-22 @ 06:53 UTC
Visibility
10 SM
Flight Rules
VFR
Cloud Levels
  • Clear skies
Temperature
-4°C / 25°F
Dewpoint
-7°C / 19°F
Humidity
80%
Altimeter
30.32" Hg
Pressure
1028.1 hPa
Previous

2 hours ago

KBTL 220553Z AUTO 00000KT 10SM CLR M04/M07 A3030 RMK AO2 SLP272 T10391072 11006 21044 53004
Observed
Feb-22 @ 05:53 UTC
Visibility
10 SM
Flight Rules
VFR
Cloud Levels
  • Clear skies
Temperature
-4°C / 25°F
Dewpoint
-7°C / 19°F
Humidity
80%
Altimeter
30.3" Hg
Pressure
1027.2 hPa